Time;durP1;ratioP1;P1;durP2;ratioP2;P2;SDS_P1;SDS_P2;PMS_P1;PMS_P2;Temp;Humidity;BMP_temperature;BMP_pressure;BME280_temperature;BME280_humidity;BME280_pressure;Samples;Min_cycle;Max_cycle;Signal;HPM_P1;HPM_P2
2022/06/05 01:48:05;;;;;;;;;;;;;;;19.11;71.87;99852.31;1087855;39;21328;-79
2022/06/05 01:49:11;;;;;;;;;;;;;;;19.07;71.95;99853.75;1087547;54;19949;-78
2022/06/05 01:50:17;;;;;;;;;;;;;;;19.05;72.10;99853.97;1088448;31;20577;-79
2022/06/05 01:51:22;;;;;;;;;;;;;;;18.98;72.38;99855.84;1087803;54;19942;-79
2022/06/05 01:52:28;;;;;;;;;;;;;;;19.02;72.01;99862.50;1091494;39;20605;-78
2022/06/05 01:53:31;;;;;;;;;;;;;;;19.04;72.20;99859.59;1089201;39;20204;-78
2022/06/05 01:54:39;;;;;;;;;;;;;;;18.99;72.17;99857.50;1088446;54;19949;-78
2022/06/05 01:55:43;;;;;;;;;;;;;;;18.99;72.35;99855.63;1089871;46;19946;-79
2022/06/05 01:56:49;;;;;;;;;;;;;;;18.95;72.62;99853.53;1088872;46;19950;-78
2022/06/05 01:57:51;;;;;;;;;;;;;;;18.92;72.38;99851.19;1089790;46;19943;-78
2022/06/05 01:58:57;;;;;;;;;;;;;;;18.97;72.21;99837.91;1088721;54;19952;-78
2022/06/05 02:00:06;;;;;;;;;;;;;;;19.00;72.30;99845.63;1088759;46;19983;-77
2022/06/05 02:01:09;;;;;;;;;;;;;;;18.94;72.25;99832.91;1088433;54;19967;-79
2022/06/05 02:02:15;;;;;;;;;;;;;;;18.95;72.41;99845.41;1088343;54;19995;-80
2022/06/05 02:03:22;;;;;;;;;;;;;;;18.96;72.29;99841.66;1088427;54;19953;-79
2022/06/05 02:04:29;;;;;;;;;;;;;;;19.01;71.92;99841.88;1088354;54;19963;-78
2022/06/05 02:05:35;;;;;;;;;;;;;;;19.06;71.71;99833.97;1088387;54;19923;-79
2022/06/05 02:06:42;;;;;;;;;;;;;;;19.08;71.75;99829.16;1088418;54;19943;-77
2022/06/05 02:07:45;;;;;;;;;;;;;;;18.99;72.13;99824.97;1088398;54;19966;-77
2022/06/05 02:08:51;;;;;;;;;;;;;;;18.99;72.29;99816.84;1090777;46;19946;-79
2022/06/05 02:09:54;;;;;;;;;;;;;;;18.92;72.36;99811.41;1090825;46;19999;-78
2022/06/05 02:11:01;;;;;;;;;;;;;;;18.86;72.60;99810.38;1088517;54;19943;-79
2022/06/05 02:12:06;;;;;;;;;;;;;;;18.86;72.70;99806.81;1088418;54;19959;-79
2022/06/05 02:13:07;;;;;;;;;;;;;;;18.80;73.40;99810.34;1088249;54;19971;-78
2022/06/05 02:14:13;;;;;;;;;;;;;;;18.75;73.50;99813.66;1090185;46;19938;-78
2022/06/05 02:15:15;;;;;;;;;;;;;;;18.71;73.66;99804.28;1091459;39;20582;-79
2022/06/05 02:16:20;;;;;;;;;;;;;;;18.63;73.90;99807.16;1088381;54;19943;-78
2022/06/05 02:17:21;;;;;;;;;;;;;;;18.62;74.06;99800.06;1089187;46;19930;-78
2022/06/05 02:18:27;;;;;;;;;;;;;;;18.60;74.08;99799.47;1088468;54;19943;-78
2022/06/05 02:19:28;;;;;;;;;;;;;;;18.63;74.15;99799.91;1088462;54;19947;-81
2022/06/05 02:20:32;;;;;;;;;;;;;;;18.66;73.67;99795.94;1088475;54;19942;-77
2022/06/05 02:21:34;;;;;;;;;;;;;;;18.67;73.48;99789.50;1088314;54;19939;-78
2022/06/05 02:22:39;;;;;;;;;;;;;;;18.69;73.62;99787.41;1088429;54;19926;-79
2022/06/05 02:23:41;;;;;;;;;;;;;;;18.77;73.04;99789.94;1088398;54;19926;-78
2022/06/05 02:24:44;;;;;;;;;;;;;;;18.81;73.27;99782.22;1088395;54;19942;-79
2022/06/05 02:25:46;;;;;;;;;;;;;;;18.80;73.18;99785.97;1088374;54;19949;-79
2022/06/05 02:26:50;;;;;;;;;;;;;;;18.83;72.96;99772.03;1088336;54;19934;-79
2022/06/05 02:27:51;;;;;;;;;;;;;;;18.86;72.58;99771.59;1088394;54;19950;-78
2022/06/05 02:28:56;;;;;;;;;;;;;;;18.85;73.04;99754.53;1087993;54;19943;-77
2022/06/05 02:29:58;;;;;;;;;;;;;;;18.89;72.58;99751.44;1088171;54;19933;-79
2022/06/05 02:31:08;;;;;;;;;;;;;;;18.81;73.28;99753.28;1088152;54;19950;-78
2022/06/05 02:32:19;;;;;;;;;;;;;;;18.74;73.28;99751.59;1087948;54;19949;-79
2022/06/05 02:33:28;;;;;;;;;;;;;;;18.70;73.91;99740.38;1087980;54;19967;-78
2022/06/05 02:34:37;;;;;;;;;;;;;;;18.70;73.33;99734.94;1087975;54;19943;-78
2022/06/05 02:35:46;;;;;;;;;;;;;;;18.66;73.80;99729.09;1087993;54;19950;-79
2022/06/05 02:36:55;;;;;;;;;;;;;;;18.60;73.95;99729.09;1087906;54;20652;-78
2022/06/05 02:38:03;;;;;;;;;;;;;;;18.60;73.83;99718.25;1087956;54;19931;-79
2022/06/05 02:39:12;;;;;;;;;;;;;;;18.65;74.07;99715.75;1088086;54;19986;-78
2022/06/05 02:40:40;;;;;;;;;;;;;;;18.65;73.83;99702.22;1088418;54;19979;-80
2022/06/05 02:43:40;;;;;;;;;;;;;;;18.72;73.21;99686.81;1088032;54;19915;-78
2022/06/05 02:44:54;;;;;;;;;;;;;;;18.59;74.03;99676.81;1089732;39;20143;-81
2022/06/05 02:46:01;;;;;;;;;;;;;;;18.56;73.79;99669.13;1087281;54;19942;-78
2022/06/05 02:47:14;;;;;;;;;;;;;;;18.54;74.17;99672.03;1088273;54;19946;-81
2022/06/05 02:48:22;;;;;;;;;;;;;;;18.55;74.06;99659.34;1087740;54;19954;-81
2022/06/05 02:49:30;;;;;;;;;;;;;;;18.54;73.95;99653.06;1088222;54;19950;-82
2022/06/05 02:50:39;;;;;;;;;;;;;;;18.52;73.97;99644.31;1088403;54;19942;-81
2022/06/05 02:51:43;;;;;;;;;;;;;;;18.47;74.52;99633.28;1088345;54;19955;-80
2022/06/05 02:52:47;;;;;;;;;;;;;;;18.46;74.54;99631.63;1088126;54;19942;-79
2022/06/05 02:53:49;;;;;;;;;;;;;;;18.44;74.54;99622.88;1088314;54;19943;-79
2022/06/05 02:54:58;;;;;;;;;;;;;;;18.43;74.44;99618.50;1088138;54;20653;-81
2022/06/05 02:56:05;;;;;;;;;;;;;;;18.42;74.76;99619.53;1087931;54;19967;-79
2022/06/05 02:57:09;;;;;;;;;;;;;;;18.40;74.64;99610.81;1088335;54;19947;-78
2022/06/05 02:58:10;;;;;;;;;;;;;;;18.37;74.54;99616.63;1087888;54;19942;-78
2022/06/05 02:59:14;;;;;;;;;;;;;;;18.39;74.81;99618.09;1087825;54;19942;-80
2022/06/05 03:00:17;;;;;;;;;;;;;;;18.43;74.65;99610.38;1088170;54;19942;-78
2022/06/05 03:03:55;;;;;;;;;;;;;;;18.44;74.41;99603.13;1088272;54;19935;-79
2022/06/05 03:04:58;;;;;;;;;;;;;;;18.47;74.29;99613.50;1088348;54;19934;-81
2022/06/05 03:06:03;;;;;;;;;;;;;;;18.47;74.04;99614.34;1088317;54;19943;-82
2022/06/05 03:07:04;;;;;;;;;;;;;;;18.44;74.60;99616.66;1088784;39;20751;-80
2022/06/05 03:08:08;;;;;;;;;;;;;;;18.46;74.53;99618.09;1088309;54;20547;-79
2022/06/05 03:09:09;;;;;;;;;;;;;;;18.47;74.44;99617.06;1088199;54;19950;-78
2022/06/05 03:10:13;;;;;;;;;;;;;;;18.44;74.21;99616.66;1088206;54;19942;-78
2022/06/05 03:11:14;;;;;;;;;;;;;;;18.41;74.79;99615.19;1092121;39;20506;-79
2022/06/05 03:12:18;;;;;;;;;;;;;;;18.44;74.75;99619.34;1088341;54;19942;-78
2022/06/05 03:13:19;;;;;;;;;;;;;;;18.44;74.57;99620.16;1088330;54;19943;-79
2022/06/05 03:14:23;;;;;;;;;;;;;;;18.51;74.15;99622.88;1088293;54;19942;-79
2022/06/05 03:15:24;;;;;;;;;;;;;;;18.51;73.93;99617.47;1088222;54;19934;-79
2022/06/05 03:16:28;;;;;;;;;;;;;;;18.50;74.10;99623.91;1093279;39;20498;-77
2022/06/05 03:17:30;;;;;;;;;;;;;;;18.54;74.15;99619.78;1088072;54;19991;-78
2022/06/05 03:18:33;;;;;;;;;;;;;;;18.59;73.75;99619.16;1087983;54;19958;-81
2022/06/05 03:19:34;;;;;;;;;;;;;;;18.60;73.92;99610.81;1087967;54;19942;-78
2022/06/05 03:20:41;;;;;;;;;;;;;;;18.57;73.82;99603.09;1088715;46;20015;-78
2022/06/05 03:21:43;;;;;;;;;;;;;;;18.57;73.98;99599.56;1088225;54;19962;-79
2022/06/05 03:22:47;;;;;;;;;;;;;;;18.58;73.88;99596.66;1088187;54;20766;-78
2022/06/05 03:23:48;;;;;;;;;;;;;;;18.59;73.81;99598.31;1088319;54;19966;-79
2022/06/05 03:24:52;;;;;;;;;;;;;;;18.62;73.51;99600.63;1093025;39;20558;-80
2022/06/05 03:25:53;;;;;;;;;;;;;;;18.63;73.64;99601.44;1088218;54;19938;-79
2022/06/05 03:26:57;;;;;;;;;;;;;;;18.69;73.01;99597.91;1088189;54;19978;-83
2022/06/05 03:27:58;;;;;;;;;;;;;;;18.68;73.23;99601.66;1088303;54;19950;-83
2022/06/05 03:29:02;;;;;;;;;;;;;;;18.72;73.10;99602.88;1087838;54;19939;-81
2022/06/05 03:30:04;;;;;;;;;;;;;;;18.75;72.71;99605.19;1088311;54;19943;-83
2022/06/05 03:31:08;;;;;;;;;;;;;;;18.72;72.77;99611.00;1088191;54;19950;-83
2022/06/05 03:32:09;;;;;;;;;;;;;;;18.68;72.98;99617.91;1088184;54;20827;-81
2022/06/05 03:33:13;;;;;;;;;;;;;;;18.70;73.00;99622.06;1088227;54;19946;-83
2022/06/05 03:34:16;;;;;;;;;;;;;;;18.73;72.63;99628.94;1088329;54;19927;-80
2022/06/05 03:35:21;;;;;;;;;;;;;;;18.76;72.60;99633.09;1087684;54;19949;-85
2022/06/05 03:36:27;;;;;;;;;;;;;;;18.75;72.49;99629.56;1087744;54;20003;-84
2022/06/05 03:37:28;;;;;;;;;;;;;;;18.77;72.17;99632.91;1087721;54;19946;-82
2022/06/05 03:38:32;;;;;;;;;;;;;;;18.78;72.41;99633.72;1087770;54;19951;-83
2022/06/05 03:39:33;;;;;;;;;;;;;;;18.80;72.10;99620.81;1087829;54;19974;-81
2022/06/05 03:40:37;;;;;;;;;;;;;;;18.77;72.16;99632.91;1087851;54;19942;-82
2022/06/05 03:41:38;;;;;;;;;;;;;;;18.75;72.10;99629.56;1087799;54;19949;-82
2022/06/05 03:42:42;;;;;;;;;;;;;;;18.81;71.93;99623.28;1088206;46;19954;-84
2022/06/05 03:43:43;;;;;;;;;;;;;;;18.81;71.85;99634.13;1087892;54;19942;-85
2022/06/05 03:44:47;;;;;;;;;;;;;;;18.78;72.13;99634.56;1087887;54;19950;-80
2022/06/05 03:45:58;;;;;;;;;;;;;;;18.83;71.70;99640.19;1088219;54;19942;-81
2022/06/05 03:47:02;;;;;;;;;;;;;;;18.81;71.89;99644.13;1088618;39;20349;-82
2022/06/05 03:48:04;;;;;;;;;;;;;;;18.79;72.18;99641.66;1088036;54;19949;-83
2022/06/05 03:49:08;;;;;;;;;;;;;;;18.83;71.78;99645.59;1088412;54;20559;-85
2022/06/05 03:50:10;;;;;;;;;;;;;;;18.78;72.12;99639.97;1088237;54;19943;-82
2022/06/05 03:52:57;;;;;;;;;;;;;;;18.81;71.76;99634.13;1088384;54;19938;-84
2022/06/05 03:54:01;;;;;;;;;;;;;;;18.85;71.92;99643.50;1088210;54;19949;-82
2022/06/05 03:55:08;;;;;;;;;;;;;;;18.88;71.71;99641.44;1089010;46;19927;-82
2022/06/05 03:56:26;;;;;;;;;;;;;;;18.91;71.29;99654.53;1088303;54;20374;-82
2022/06/05 03:57:32;;;;;;;;;;;;;;;18.90;71.68;99653.72;1088164;54;19935;-81
2022/06/05 03:58:33;;;;;;;;;;;;;;;18.91;71.52;99666.22;1088330;54;19939;-82
2022/06/05 03:59:37;;;;;;;;;;;;;;;18.92;71.43;99661.63;1088255;47;19939;-79
2022/06/05 04:00:42;;;;;;;;;;;;;;;18.93;71.34;99663.31;1087944;54;19942;-82
2022/06/05 04:01:49;;;;;;;;;;;;;;;18.92;71.07;99662.47;1088509;46;19982;-84
2022/06/05 04:03:13;;;;;;;;;;;;;;;18.99;71.37;99667.88;1087528;54;19942;-83
2022/06/05 04:04:14;;;;;;;;;;;;;;;18.98;71.03;99682.50;1087574;54;19949;-82
2022/06/05 04:05:21;;;;;;;;;;;;;;;18.98;70.92;99682.50;1087174;54;20172;-82
2022/06/05 04:06:23;;;;;;;;;;;;;;;18.99;71.10;99684.16;1087516;54;19949;-82
2022/06/05 04:07:27;;;;;;;;;;;;;;;18.96;71.67;99688.09;1088094;54;19927;-83
2022/06/05 04:08:30;;;;;;;;;;;;;;;18.89;71.37;99699.97;1087942;54;19950;-83
2022/06/05 04:09:34;;;;;;;;;;;;;;;18.86;71.69;99709.31;1087955;54;19950;-85
2022/06/05 04:10:37;;;;;;;;;;;;;;;18.95;71.46;99715.41;1088256;54;19943;-82
2022/06/05 04:11:41;;;;;;;;;;;;;;;18.94;71.33;99719.97;1088168;54;19942;-81
2022/06/05 04:12:42;;;;;;;;;;;;;;;18.94;71.69;99728.09;1089704;46;20664;-85
2022/06/05 04:13:47;;;;;;;;;;;;;;;19.01;71.44;99731.66;1087735;54;19943;-83
2022/06/05 04:14:48;;;;;;;;;;;;;;;19.05;71.38;99742.91;1088100;54;19923;-82
2022/06/05 04:15:52;;;;;;;;;;;;;;;18.99;72.14;99750.00;1088131;54;19942;-82
2022/06/05 04:16:53;;;;;;;;;;;;;;;18.89;72.44;99762.25;1087949;54;20010;-80
2022/06/05 04:17:57;;;;;;;;;;;;;;;18.84;73.77;99784.53;1087661;54;19943;-81
2022/06/05 04:18:59;;;;;;;;;;;;;;;18.71;74.20;99798.84;1087777;54;19939;-80
2022/06/05 04:20:03;;;;;;;;;;;;;;;18.73;74.66;99818.44;1091064;39;20885;-82
2022/06/05 04:21:07;;;;;;;;;;;;;;;18.67;74.83;99825.50;1087610;54;19966;-83
2022/06/05 04:22:11;;;;;;;;;;;;;;;18.69;74.94;99819.91;1087329;54;19942;-83
2022/06/05 04:23:12;;;;;;;;;;;;;;;18.66;74.71;99823.84;1088319;39;20592;-82
2022/06/05 04:24:20;;;;;;;;;;;;;;;18.69;75.30;99830.75;1087669;54;19942;-83
2022/06/05 04:25:21;;;;;;;;;;;;;;;18.63;75.36;99843.22;1087933;54;19926;-81
2022/06/05 04:26:26;;;;;;;;;;;;;;;18.64;75.86;99839.47;1088154;54;19939;-81
2022/06/05 04:27:28;;;;;;;;;;;;;;;18.59;76.64;99841.09;1088134;54;19979;-81
2022/06/05 04:28:31;;;;;;;;;;;;;;;18.59;76.41;99835.69;1088202;54;19983;-81
2022/06/05 04:29:35;;;;;;;;;;;;;;;18.63;76.15;99829.69;1088213;54;19935;-83
2022/06/05 04:30:38;;;;;;;;;;;;;;;18.69;76.36;99819.91;1088134;54;20532;-83
2022/06/05 04:31:44;;;;;;;;;;;;;;;18.79;75.63;99814.94;1087757;54;19951;-80
2022/06/05 04:32:48;;;;;;;;;;;;;;;18.82;76.64;99808.28;1087768;54;19957;-80
2022/06/05 04:33:50;;;;;;;;;;;;;;;18.82;76.23;99789.31;1087805;54;19939;-81
2022/06/05 04:34:54;;;;;;;;;;;;;;;18.77;76.99;99800.75;1088051;54;19946;-82
2022/06/05 04:35:56;;;;;;;;;;;;;;;18.76;77.36;99799.09;1090028;39;20386;-85
2022/06/05 04:36:59;;;;;;;;;;;;;;;18.77;76.75;99795.34;1088039;54;19978;-82
2022/06/05 04:38:03;;;;;;;;;;;;;;;18.73;77.64;99802.19;1088028;54;19943;-85
2022/06/05 04:39:07;;;;;;;;;;;;;;;18.74;77.73;99795.75;1087765;54;20649;-84
2022/06/05 04:40:11;;;;;;;;;;;;;;;18.67;78.05;99793.03;1088150;54;19942;-82
2022/06/05 04:41:15;;;;;;;;;;;;;;;18.63;78.17;99790.91;1088097;54;20006;-81
2022/06/05 04:42:17;;;;;;;;;;;;;;;18.51;78.96;99783.41;1088240;54;19946;-81
2022/06/05 04:43:23;;;;;;;;;;;;;;;18.42;80.01;99781.91;1088168;54;19942;-83
2022/06/05 04:44:24;;;;;;;;;;;;;;;18.30;80.40;99773.53;1088218;54;19946;-82
2022/06/05 04:45:28;;;;;;;;;;;;;;;18.27;80.25;99778.53;1088154;54;19970;-81
2022/06/05 04:46:29;;;;;;;;;;;;;;;18.28;80.04;99766.66;1088073;54;19963;-83
2022/06/05 04:47:33;;;;;;;;;;;;;;;18.23;80.97;99768.09;1088182;54;19946;-84
2022/06/05 04:48:35;;;;;;;;;;;;;;;18.27;80.82;99767.69;1088064;54;19943;-81
2022/06/05 04:49:39;;;;;;;;;;;;;;;18.27;80.63;99756.88;1088200;54;19938;-81
2022/06/05 04:50:40;;;;;;;;;;;;;;;18.21;80.59;99759.38;1088097;54;19927;-80
2022/06/05 04:53:17;;;;;;;;;;;;;;;18.14;81.68;99757.66;1088191;54;19994;-81
2022/06/05 04:54:21;;;;;;;;;;;;;;;18.06;82.10;99762.22;1088110;54;19949;-82
2022/06/05 04:55:25;;;;;;;;;;;;;;;18.02;81.71;99754.72;1087711;54;19991;-82
2022/06/05 04:56:32;;;;;;;;;;;;;;;18.00;81.88;99759.47;1089962;39;20377;-81
2022/06/05 04:57:33;;;;;;;;;;;;;;;18.05;81.66;99757.00;1089016;39;20486;-82
2022/06/05 04:58:38;;;;;;;;;;;;;;;18.03;81.42;99757.19;1088067;54;19949;-80
2022/06/05 04:59:42;;;;;;;;;;;;;;;18.02;82.20;99749.28;1087780;54;19957;-81
2022/06/05 05:00:43;;;;;;;;;;;;;;;18.02;82.04;99750.13;1088353;54;19942;-81
2022/06/05 05:01:47;;;;;;;;;;;;;;;17.98;82.09;99738.06;1092368;47;19966;-81
2022/06/05 05:02:48;;;;;;;;;;;;;;;17.94;83.04;99736.75;1088529;47;19938;-79
2022/06/05 05:03:54;;;;;;;;;;;;;;;17.92;83.62;99730.69;1088204;54;19958;-79
2022/06/05 05:04:56;;;;;;;;;;;;;;;17.86;83.77;99721.50;1089046;47;19939;-82
2022/06/05 05:05:59;;;;;;;;;;;;;;;17.78;84.24;99714.41;1088285;54;19943;-83
2022/06/05 05:07:03;;;;;;;;;;;;;;;17.76;84.47;99707.53;1088312;54;19938;-82
2022/06/05 05:08:05;;;;;;;;;;;;;;;17.75;84.62;99700.47;1088631;46;19970;-80
2022/06/05 05:09:09;;;;;;;;;;;;;;;17.68;85.50;99695.03;1088110;54;19957;-80
2022/06/05 05:10:10;;;;;;;;;;;;;;;17.70;85.65;99697.53;1088052;54;19926;-80
2022/06/05 05:11:17;;;;;;;;;;;;;;;17.74;84.68;99701.50;1087880;54;19953;-82
2022/06/05 05:12:21;;;;;;;;;;;;;;;17.76;85.04;99702.13;1087785;46;19998;-82
2022/06/05 05:13:22;;;;;;;;;;;;;;;17.74;84.32;99717.72;1088165;54;19999;-81
2022/06/05 05:14:26;;;;;;;;;;;;;;;17.74;84.61;99733.94;1088144;54;19947;-83
2022/06/05 05:15:27;;;;;;;;;;;;;;;17.71;84.98;99756.78;1088146;54;20002;-81
2022/06/05 05:16:32;;;;;;;;;;;;;;;17.67;85.21;99763.63;1087820;54;19994;-82
2022/06/05 05:17:33;;;;;;;;;;;;;;;17.80;84.28;99792.59;1087928;54;19935;-81
2022/06/05 05:20:14;;;;;;;;;;;;;;;17.71;85.28;99828.94;1088230;54;19930;-82
2022/06/05 05:21:16;;;;;;;;;;;;;;;17.83;84.69;99837.34;1090783;47;19995;-82
2022/06/05 05:22:20;;;;;;;;;;;;;;;17.92;83.55;99838.84;1088157;54;19966;-82
2022/06/05 05:23:21;;;;;;;;;;;;;;;17.78;84.81;99846.03;1094857;39;20169;-81
2022/06/05 05:24:25;;;;;;;;;;;;;;;17.72;85.46;99846.84;1088192;54;19951;-81
2022/06/05 05:25:26;;;;;;;;;;;;;;;17.69;85.13;99849.91;1088197;54;20011;-82
2022/06/05 05:26:37;;;;;;;;;;;;;;;17.72;85.13;99863.88;1088072;54;19998;-80
2022/06/05 05:27:39;;;;;;;;;;;;;;;17.79;85.74;99858.53;1087997;54;19946;-79
2022/06/05 05:28:43;;;;;;;;;;;;;;;17.73;86.31;99873.66;1087732;54;19943;-79
2022/06/05 05:29:47;;;;;;;;;;;;;;;17.67;85.92;99881.72;1087800;54;19943;-80
2022/06/05 05:30:48;;;;;;;;;;;;;;;17.61;86.68;99894.16;1087926;54;19966;-80
2022/06/05 05:31:52;;;;;;;;;;;;;;;17.58;87.41;99902.66;1087752;54;19950;-79
2022/06/05 05:32:53;;;;;;;;;;;;;;;17.58;87.67;99897.25;1087900;54;19949;-81
2022/06/05 05:33:58;;;;;;;;;;;;;;;17.59;87.71;99899.75;1087986;54;19991;-81
2022/06/05 05:34:59;;;;;;;;;;;;;;;17.68;87.36;99902.31;1088013;54;20528;-84
2022/06/05 05:36:08;;;;;;;;;;;;;;;17.71;87.64;99902.75;1088157;54;19966;-82
2022/06/05 05:37:09;;;;;;;;;;;;;;;17.76;86.84;99903.00;1088129;54;19958;-83
2022/06/05 05:38:19;;;;;;;;;;;;;;;17.84;86.01;99903.91;1088060;54;19983;-83
2022/06/05 05:42:08;;;;;;;;;;;;;;;17.94;85.19;99912.50;1088469;54;19943;-83
2022/06/05 05:43:11;;;;;;;;;;;;;;;18.00;84.78;99902.81;1089063;46;19966;-82
2022/06/05 05:44:13;;;;;;;;;;;;;;;18.03;84.65;99892.44;1088269;54;19966;-81
2022/06/05 05:45:17;;;;;;;;;;;;;;;18.07;84.32;99890.16;1087987;54;19939;-82
2022/06/05 05:46:18;;;;;;;;;;;;;;;18.08;84.06;99883.72;1088286;54;19943;-81
2022/06/05 05:47:23;;;;;;;;;;;;;;;17.99;85.22;99869.53;1088309;54;19978;-81
2022/06/05 05:48:24;;;;;;;;;;;;;;;17.84;85.56;99861.50;1088268;54;19942;-79
2022/06/05 05:49:28;;;;;;;;;;;;;;;17.72;85.51;99846.84;1088483;54;19927;-80
2022/06/05 05:50:29;;;;;;;;;;;;;;;17.69;87.02;99828.28;1088418;54;19927;-80
2022/06/05 05:51:33;;;;;;;;;;;;;;;17.65;87.07;99808.13;1088391;54;19949;-80
2022/06/05 05:52:35;;;;;;;;;;;;;;;17.64;87.80;99774.00;1088422;54;20559;-81
2022/06/05 05:53:39;;;;;;;;;;;;;;;17.68;87.44;99751.78;1088497;54;19942;-80
2022/06/05 05:54:40;;;;;;;;;;;;;;;17.64;87.92;99725.34;1088447;54;19939;-81
2022/06/05 05:55:44;;;;;;;;;;;;;;;17.64;88.03;99692.91;1088520;54;19979;-81
2022/06/05 05:56:45;;;;;;;;;;;;;;;17.58;88.72;99656.72;1088427;54;19939;-85
2022/06/05 05:57:52;;;;;;;;;;;;;;;17.48;88.77;99638.16;1088481;54;19977;-82
2022/06/05 05:58:53;;;;;;;;;;;;;;;17.39;89.55;99642.06;1088207;54;19935;-83
2022/06/05 05:59:57;;;;;;;;;;;;;;;17.34;90.36;99639.94;1088188;54;20015;-81
2022/06/05 06:01:00;;;;;;;;;;;;;;;17.24;90.99;99653.00;1087817;39;20463;-81
2022/06/05 06:02:06;;;;;;;;;;;;;;;17.25;91.41;99665.44;1087316;54;20542;-80
2022/06/05 06:03:07;;;;;;;;;;;;;;;17.22;91.11;99691.00;1088441;54;19950;-78
2022/06/05 06:04:11;;;;;;;;;;;;;;;17.17;91.44;99693.47;1088451;54;19939;-78
2022/06/05 06:05:13;;;;;;;;;;;;;;;17.12;91.43;99706.72;1088373;54;19989;-78
2022/06/05 06:06:18;;;;;;;;;;;;;;;17.11;91.90;99710.44;1088658;46;20012;-78
2022/06/05 06:07:22;;;;;;;;;;;;;;;17.11;91.63;99705.03;1088929;46;19974;-78
2022/06/05 06:08:23;;;;;;;;;;;;;;;17.21;91.73;99702.00;1088468;54;19942;-81
2022/06/05 06:09:27;;;;;;;;;;;;;;;17.22;90.56;99715.31;1088454;54;19927;-78
2022/06/05 06:10:28;;;;;;;;;;;;;;;17.29;90.16;99718.06;1089319;46;19927;-82
2022/06/05 06:11:32;;;;;;;;;;;;;;;17.34;89.03;99715.59;1088257;54;19978;-76
2022/06/05 06:12:33;;;;;;;;;;;;;;;17.38;88.21;99705.25;1088250;54;19966;-76
2022/06/05 06:13:40;;;;;;;;;;;;;;;17.43;87.62;99714.41;1088840;46;19934;-77
2022/06/05 06:14:41;;;;;;;;;;;;;;;17.45;86.44;99708.81;1088403;54;20006;-78
2022/06/05 06:15:45;;;;;;;;;;;;;;;17.51;86.95;99715.31;1088889;46;19934;-79
2022/06/05 06:16:46;;;;;;;;;;;;;;;17.49;86.70;99718.19;1088229;54;19923;-79
2022/06/05 06:17:50;;;;;;;;;;;;;;;17.51;87.01;99716.13;1089029;46;19990;-77
2022/06/05 06:18:51;;;;;;;;;;;;;;;17.49;85.76;99707.38;1088054;54;19949;-80
2022/06/05 06:19:55;;;;;;;;;;;;;;;17.52;85.91;99714.28;1088328;54;19942;-78
2022/06/05 06:20:56;;;;;;;;;;;;;;;17.50;86.21;99700.94;1088348;54;20686;-80
2022/06/05 06:22:00;;;;;;;;;;;;;;;17.50;86.33;99708.22;1091867;46;19946;-79
2022/06/05 06:23:01;;;;;;;;;;;;;;;17.52;86.21;99696.19;1088317;54;19950;-78
2022/06/05 06:24:05;;;;;;;;;;;;;;;17.51;85.78;99707.19;1088369;54;20662;-78
2022/06/05 06:25:07;;;;;;;;;;;;;;;17.51;86.21;99710.72;1089367;46;19926;-79
2022/06/05 06:26:11;;;;;;;;;;;;;;;17.49;86.39;99718.19;1088122;54;19927;-79
2022/06/05 06:27:15;;;;;;;;;;;;;;;17.53;86.21;99724.88;1089622;46;19951;-79
2022/06/05 06:28:16;;;;;;;;;;;;;;;17.57;85.93;99720.72;1088330;54;19949;-78
2022/06/05 06:29:23;;;;;;;;;;;;;;;17.51;85.98;99724.22;1088405;54;19943;-79
2022/06/05 06:30:24;;;;;;;;;;;;;;;17.55;86.41;99728.22;1088349;54;19946;-76
2022/06/05 06:31:28;;;;;;;;;;;;;;;17.58;85.86;99726.97;1088053;46;20910;-77
2022/06/05 06:32:29;;;;;;;;;;;;;;;17.60;85.84;99731.16;1088868;46;19923;-78
2022/06/05 06:33:33;;;;;;;;;;;;;;;17.62;85.48;99726.38;1088369;54;19994;-77
2022/06/05 06:34:34;;;;;;;;;;;;;;;17.66;85.24;99734.94;1088012;54;19955;-77
2022/06/05 06:35:39;;;;;;;;;;;;;;;17.69;85.16;99729.13;1088034;54;19942;-77
2022/06/05 06:36:43;;;;;;;;;;;;;;;17.69;84.81;99718.31;1088039;54;19939;-78
2022/06/05 06:37:44;;;;;;;;;;;;;;;17.70;84.98;99708.34;1088459;46;19942;-78
2022/06/05 06:38:48;;;;;;;;;;;;;;;17.68;84.99;99707.69;1088199;54;19949;-77
2022/06/05 06:39:49;;;;;;;;;;;;;;;17.65;85.28;99714.34;1088287;54;19923;-78
2022/06/05 06:40:59;;;;;;;;;;;;;;;17.64;85.27;99709.97;1088232;54;19949;-78
2022/06/05 06:42:03;;;;;;;;;;;;;;;17.59;85.49;99717.84;1090395;46;19942;-78
2022/06/05 06:43:04;;;;;;;;;;;;;;;17.62;84.97;99720.97;1088296;54;19942;-78
2022/06/05 06:44:09;;;;;;;;;;;;;;;17.68;84.56;99723.91;1088230;54;20252;-76
2022/06/05 06:45:13;;;;;;;;;;;;;;;17.72;84.33;99731.41;1088293;54;19942;-76
2022/06/05 06:46:18;;;;;;;;;;;;;;;17.74;84.33;99742.06;1088215;54;19994;-78
2022/06/05 06:47:19;;;;;;;;;;;;;;;17.76;84.20;99748.06;1089363;46;19967;-77
2022/06/05 06:48:23;;;;;;;;;;;;;;;17.75;84.06;99766.16;1088256;54;19955;-79
2022/06/05 06:49:25;;;;;;;;;;;;;;;17.71;84.74;99772.19;1088351;54;19950;-79
2022/06/05 06:50:29;;;;;;;;;;;;;;;17.76;84.75;99778.66;1088334;54;19926;-84
2022/06/05 06:51:30;;;;;;;;;;;;;;;17.80;84.52;99776.38;1087711;54;19962;-78
2022/06/05 06:52:34;;;;;;;;;;;;;;;17.83;84.42;99776.00;1087807;54;19931;-78
2022/06/05 06:53:36;;;;;;;;;;;;;;;17.85;84.41;99776.66;1088294;54;19998;-80
2022/06/05 06:54:40;;;;;;;;;;;;;;;17.86;84.85;99772.88;1088358;54;19927;-77
2022/06/05 06:55:42;;;;;;;;;;;;;;;17.91;84.33;99767.72;1088274;54;20067;-79
2022/06/05 06:56:47;;;;;;;;;;;;;;;17.95;84.20;99765.44;1090337;46;19950;-79
2022/06/05 06:57:49;;;;;;;;;;;;;;;17.96;84.85;99766.28;1088286;54;20523;-80
2022/06/05 06:58:53;;;;;;;;;;;;;;;17.89;84.64;99764.38;1088399;54;19983;-83
2022/06/05 06:59:55;;;;;;;;;;;;;;;17.86;84.50;99766.66;1088370;54;20229;-82
2022/06/05 07:01:02;;;;;;;;;;;;;;;17.92;84.43;99755.88;1088382;54;19939;-83
2022/06/05 07:02:06;;;;;;;;;;;;;;;17.98;84.63;99750.72;1087356;54;19954;-79
2022/06/05 07:03:07;;;;;;;;;;;;;;;18.02;84.45;99738.47;1086078;54;19998;-79
2022/06/05 07:04:11;;;;;;;;;;;;;;;18.05;84.31;99732.66;1086107;54;19939;-78
2022/06/05 07:05:12;;;;;;;;;;;;;;;18.09;83.86;99717.69;1086478;54;20559;-80
2022/06/05 07:06:16;;;;;;;;;;;;;;;18.05;85.13;99716.41;1086575;54;20444;-80
2022/06/05 07:07:18;;;;;;;;;;;;;;;17.97;85.16;99708.47;1086706;54;19943;-80
2022/06/05 07:08:23;;;;;;;;;;;;;;;17.91;85.76;99710.09;1087862;54;19950;-78
2022/06/05 07:09:26;;;;;;;;;;;;;;;17.87;85.98;99709.66;1088225;54;19950;-78
2022/06/05 07:10:31;;;;;;;;;;;;;;;17.88;85.37;99707.81;1088310;54;19943;-80
2022/06/05 07:11:32;;;;;;;;;;;;;;;17.85;85.23;99700.94;1088109;54;19950;-80
2022/06/05 07:12:37;;;;;;;;;;;;;;;17.83;86.11;99680.53;1087887;54;19957;-79
2022/06/05 07:13:41;;;;;;;;;;;;;;;17.78;86.48;99681.13;1088076;54;19941;-83
2022/06/05 07:16:54;;;;;;;;;;;;;;;17.70;86.64;99659.69;1087123;54;19927;-80
2022/06/05 07:17:57;;;;;;;;;;;;;;;17.67;86.84;99652.81;1088455;54;19966;-84
2022/06/05 07:20:05;;;;;;;;;;;;;;;17.71;86.57;99650.53;1087742;54;19991;-81
2022/06/05 07:21:11;;;;;;;;;;;;;;;17.73;86.94;99641.19;1088939;46;19939;-81
2022/06/05 07:24:13;;;;;;;;;;;;;;;17.82;86.41;99641.84;1087787;54;19950;-81
2022/06/05 07:25:15;;;;;;;;;;;;;;;17.79;86.50;99631.44;1087787;54;19975;-82
2022/06/05 07:26:20;;;;;;;;;;;;;;;17.78;86.43;99614.41;1088303;54;19998;-85
2022/06/05 07:37:07;;;;;;;;;;;;;;;17.75;87.33;99579.66;1087825;54;19942;-81
2022/06/05 07:38:29;;;;;;;;;;;;;;;17.77;86.54;99572.19;1087952;54;19942;-79
2022/06/05 07:39:34;;;;;;;;;;;;;;;17.76;86.71;99561.53;1088271;46;19933;-78
2022/06/05 07:40:40;;;;;;;;;;;;;;;17.78;86.64;99551.38;1087627;54;20013;-79
2022/06/05 07:41:46;;;;;;;;;;;;;;;17.75;87.31;99540.97;1087391;54;19986;-78
2022/06/05 07:42:47;;;;;;;;;;;;;;;17.73;86.69;99557.38;1087974;54;19938;-78
2022/06/05 07:43:51;;;;;;;;;;;;;;;17.75;87.35;99559.91;1087856;54;20030;-79
2022/06/05 07:44:52;;;;;;;;;;;;;;;17.73;87.32;99572.78;1087952;54;19951;-77
2022/06/05 07:45:57;;;;;;;;;;;;;;;17.74;87.08;99553.66;1087909;54;19949;-79
2022/06/05 07:47:04;;;;;;;;;;;;;;;17.80;87.12;99552.00;1087869;54;19949;-79
2022/06/05 07:48:06;;;;;;;;;;;;;;;17.83;86.76;99550.75;1087989;54;19942;-79